الصفحة الرئيسية
METAR-TAF:

METAR-TAF

مطار :

أنتاناناريفو, مدغشقر

دائرة عرض: 18-48S, خط طول: 047-29E, ارتفاع: 1279 متر

مراقبة الطقس الحالي

تاريخ ووقت الإصدار 14 دقيقة قبل الساعة 03:30UTC
ريح 2 عقدةمن اتجاهات متغيرة
درجة الحرارة 10°درجة مئوية
الرطوبة 100%
ضغط 1024 hPa
الرؤية: 6000 متر
غيوم قليلة على ارتفاع 400 قدم

METAR: FMMI 240330Z VRB02KT 6000 FEW004 10/10 Q1024 BECMG 4500 BR

زمن: 06:44 (03:44 UTC)

توقعات

تاريخ ووقت الإصدار 4ساعات و 44 دقيقة قبل الساعة 23:00UTC
التوقعات صالحة من24 الساعة 00 UTC إلى 25 الساعة 06 UTC
ريح 4 عقدةمن اتجاهات متغيرة
الرؤية 10 كم أو أكثر
غيوم متفرقة على ارتفاع 500 قدم
غيوم مفككة على ارتفاع 2000 قدم
نظرية الاحتمالات 40%
من 24 الساعة 00 UTC إلى 24 الساعة 04 UTC
الرؤية: 1500 متر
غيوم مفككة على ارتفاع 400 قدم
غشاء
أصبح
من 24 الساعة 10 UTC إلى 24 الساعة 12 UTC
ريح 10 عقدة من الشرق
أصبح
من 24 الساعة 20 UTC إلى 24 الساعة 22 UTC
ريح عقدة من الشمال

TAF: FMMI 232300Z 2400/2506 VRB04KT 9999 SCT005 BKN020 PROB40 2400/2404 1500 BR BKN004 BECMG 2410/2412 10010KT BECMG 2420/2422 00000KT

أرصاد الطقس والتوقعات من أكثر من 4000 مطار (تقارير الطقس للمطار METAR والتنبؤ بالطقس بالمطارTAF).

المحطات المتاحة هي النقط الصفراء والحمراء على الخريطة.

حرك المؤشر فوق النقطة لمعرفة اسم المحطة.

ثم انقر لمعرفة أرصاد وتوقعات الطقس.

لتغيير الخارطة: اضغط على الأزرار الخضراء مع رمز الصليب الأسود للتكبير. على الزر الأخضر مع شرطة للتصغير، أو على الأسهم الخضراء للخرائط المجاورة.


METAR-TAF: